Weather observations for the past three days for
Moultrie, Moultrie Municipal Airport
Imperial (Metric)
Date Time (edt) Wind (mph) Vis. (mi.) Weather Sky Cond. Temperature (ºF) Relative Humidity Wind Chill (°F) Heat Index (°F) Pressure Precipitation (in)
Air Dwpt 6 hour altimeter (in) sea level (mb) 1 hr 3 hr 6 hr
Max. Min.
07 05:15 NW 6 10.00 Fair CLR 70.7 69.6 96% 29.94 0.0
07 04:55 W 5 10.00 Partly Cloudy SCT200 70.7 69.4 96% 29.92 0.0
07 04:35 SW 7 10.00 A Few Clouds FEW200 70.7 69.4 96% 29.92 0.0
07 04:15 SW 10 10.00 Fair CLR 70.7 69.4 96% 29.91 0.0
07 03:55 SW 9 10.00 Fair CLR 70.3 69.8 98% 29.9 0.0
07 03:35 SW 8 10.00 Fair CLR 70.2 69.6 98% 29.91 0.0
07 03:15 SW 7 10.00 Fair CLR 70.3 69.8 98% 29.91 0.0
07 02:55 SW 8 10.00 A Few Clouds FEW290 70.5 70 98% 29.91 0.0
07 02:35 SW 9 10.00 Partly Cloudy SCT290 70.5 70.2 99% 29.93 0.0
07 02:15 SW 10 10.00 Fair CLR 70.7 70.2 98% 29.93 0.0
07 01:55 S 9 10.00 Fair CLR 70.9 70 97% 29.94 0.0
07 01:35 SW 8 10.00 Fair CLR 71.2 70.2 96% 29.95 0.0
07 01:15 SW 7 10.00 Fair CLR 71.4 70 95% 29.95 0.0
07 00:55 SW 8 10.00 Fair CLR 71.8 70 94% 29.96 0.0
07 00:35 SW 7 10.00 Fair CLR 72.1 70 93% 29.97 0.0
07 00:15 SW 8 10.00 Fair CLR 72.3 69.6 91% 29.97 0.0
06 23:55 SW 8 10.00 Fair CLR 72.9 69.6 90% 29.98 0.0
06 23:35 S 8 10.00 Fair CLR 73.4 68.9 86% 29.97 0.0
06 23:15 SW 9 10.00 Mostly Cloudy BKN240 73.9 68 82% 29.99 0.0
06 22:55 S 10 10.00 Mostly Cloudy BKN240 74.8 67.3 77% 29.98 0.0
06 22:35 S 9 10.00 Fair CLR 75.6 66.4 73% 77 29.97 0.0
06 22:15 S 8 10.00 Fair CLR 76.5 66.6 72% 78 29.96 0.0
06 21:55 S 7 10.00 Fair CLR 77.4 66.9 70% 79 29.96 0.0
06 21:35 S 10 10.00 Fair CLR 78.4 67.3 69% 81 29.94 0.0
06 21:15 S 10 10.00 Fair CLR 79.2 67.6 68% 81 29.94 0.0
06 20:55 S 8 10.00 Fair CLR 80.1 66.7 64% 82 29.94 0.0
06 20:35 S 7 10.00 Fair CLR 80.4 66.6 63% 83 29.94 0.0
06 20:15 S 6 10.00 Fair CLR 81 66.9 62% 83 29.94 0.0
06 19:55 S 5 10.00 Fair CLR 82.8 66 57% 85 29.96 0.0
06 19:35 S 5 10.00 Fair CLR 84 65.7 54% 86 29.95 0.0
06 19:15 SW 7 10.00 Fair CLR 84.9 64.4 50% 86 29.94 0.0
06 18:55 SW 7 9.00 Fair CLR 84.9 63.7 49% 86 29.94 0.0
06 18:35 SW 10 10.00 Fair CLR 86 63 46% 87 29.95 0.0
06 18:15 SW 9 10.00 Fair CLR 87.1 63.1 45% 88 29.94 0.0
06 17:55 SW 8 10.00 Fair CLR 87.3 62.6 44% 88 29.95 0.0
06 17:35 S 10 10.00 Fair CLR 87.4 62.6 44% 88 29.96 0.0
06 17:15 SW 9 10.00 Fair CLR 87.8 60.8 40% 88 29.96 0.0
06 16:55 SW 13 10.00 Fair CLR 88 60.8 40% 88 29.96 0.0
06 16:35 SW 10 10.00 A Few Clouds FEW060 87.8 60.4 40% 88 29.97 0.0
06 16:15 SW 5 10.00 Partly Cloudy SCT060 86.4 59.9 41% 86 29.98 0.0
06 15:55 W 10 10.00 Mostly Cloudy BKN060 88.3 60.1 39% 88 29.98 0.0
06 15:35 W 9 10.00 A Few Clouds FEW060 87.6 59 38% 87 29.99 0.0
06 15:15 Vrbl 5 10.00 Fair CLR 87.8 58.5 37% 87 29.99 0.0
06 14:55 SW 10 G 16 10.00 Fair CLR 87.8 59 38% 87 30 0.0
06 14:40 W 10 G 18 9.00 Overcast BKN021 BKN028 OVC036 69.8 68 94% 29.93 0.0
06 14:35 SW 8 10.00 Fair CLR 86.9 59 39% 86 30 0.0
06 14:15 W 8 10.00 Fair CLR 86 60.3 42% 86 30.01 0.0
06 13:55 SW 9 10.00 A Few Clouds FEW370 86.5 60.1 41% 86 30.02 0.0
06 13:35 SW 6 10.00 Fair CLR 85.3 60.3 43% 85 30.02 0.0
06 13:15 W 10 10.00 A Few Clouds FEW320 84 60.8 46% 84 30.03 0.0
06 12:55 W 10 G 21 10.00 A Few Clouds FEW320 84 60.4 45% 84 30.03 0.0
06 12:35 W 9 10.00 Fair CLR 83.1 63.9 52% 84 30.04 0.0
06 12:15 SW 8 10.00 Fair CLR 82.4 64 54% 84 30.04 0.0
06 11:55 SW 8 10.00 Fair CLR 81 64.8 58% 83 30.05 0.0
06 11:35 W 10 10.00 Fair CLR 80.6 65.1 59% 82 30.05 0.0
06 11:15 S 6 10.00 Fair CLR 79.9 65.7 62% 82 30.05 0.0
06 10:55 S 10 10.00 Fair CLR 79.9 65.3 61% 82 30.04 0.0
06 10:35 Vrbl 5 10.00 Fair CLR 78.1 67.3 70% 80 30.03 0.0
06 10:15 SW 9 10.00 Fair CLR 77.5 68 73% 79 30.03 0.0
06 09:55 S 10 10.00 Fair CLR 75.7 67.3 75% 77 30.02 0.0
06 09:35 S 9 10.00 Fair CLR 73.8 68.5 84% 30.02 0.0
06 09:15 SW 10 10.00 A Few Clouds FEW013 72.9 68.5 86% 30.02 0.0
06 08:55 S 8 10.00 A Few Clouds FEW012 72 68.7 90% 30.01 0.0
06 08:35 SW 7 10.00 A Few Clouds FEW006 69.6 69.6 100% 30.01 0.0
06 08:15 SW 3 9.00 Mostly Cloudy BKN005 67.8 67.8 100% 30.01 0.0
06 07:55 S 5 8.00 Overcast OVC004 67.1 67.1 100% 30 0.0
06 07:35 S 6 5.00 Fog/Mist OVC003 66.6 66.6 100% 29.99 0.0
06 07:15 S 7 5.00 Fog/Mist OVC003 66.4 66.4 100% 29.98 0.0
06 06:55 S 5 5.00 Fog/Mist OVC003 66.2 66.2 100% 29.98 0.0
06 06:35 S 7 6.00 Fog/Mist OVC003 65.8 65.8 100% 29.97 0.0
06 06:15 S 6 6.00 Fog/Mist OVC002 65.5 65.5 100% 29.97 0.0
06 05:55 S 6 1.00 Fog/Mist VV002 65.1 65.1 100% 29.98 0.0
06 05:35 S 6 0.50 Fog VV002 64.4 64.4 100% 29.98 0.0
06 05:15 SE 6 0.50 Fog VV002 64 64 100% 29.98 0.0
06 04:55 SE 5 1.75 Fog/Mist BKN002 63.3 63.3 100% 29.97 0.0
06 04:35 SE 3 6.00 Fog/Mist CLR 62.4 62.4 100% 29.97 0.0
06 04:15 SE 3 7.00 Fair CLR 62.8 62.8 100% 29.97 0.0
06 03:55 SE 6 7.00 Fair CLR 62.6 62.6 100% 29.98 0.0
06 03:35 SE 5 9.00 Fair CLR 62.1 61.5 98% 29.98 0.0
06 03:15 Calm 9.00 Fair CLR 64.2 63 96% 29.97 0.0
06 02:55 SW 3 9.00 Fair CLR 64 62.6 95% 29.97 0.0
06 02:35 Calm 9.00 Fair CLR 64 62.6 95% 29.98 0.0
06 01:55 S 3 10.00 Fair CLR 65.1 62.2 90% 29.99 0.0
06 01:35 SW 5 10.00 A Few Clouds FEW360 66.4 62.4 87% 30 0.0
06 01:15 S 5 10.00 A Few Clouds FEW360 65.8 61.5 86% 30 0.0
06 00:55 S 5 10.00 Fair CLR 66.4 61.5 84% 30 0.0
06 00:35 SW 3 10.00 Fair CLR 67.1 61.3 82% 30 0.0
06 00:15 S 6 10.00 Fair CLR 67.5 61 80% 30 0.0
05 23:55 S 5 10.00 Fair CLR 66.6 61.3 83% 30 0.0
05 23:35 S 5 10.00 Fair CLR 68 60.8 78% 30 0.0
05 23:15 S 5 10.00 Fair CLR 68.5 60.6 76% 30 0.0
05 23:10 Calm 9.00 NULL NULL 62.6 55.4 77% 29.89 0.0
05 22:55 SW 5 10.00 Fair CLR 68.4 60.8 77% 30.01 0.0
05 22:35 S 5 10.00 Fair CLR 70.3 60.4 71% 29.99 0.0
05 22:15 SW 5 10.00 Fair CLR 71.4 59.9 67% 29.99 0.0
05 21:55 SW 5 10.00 Fair CLR 71.8 59.5 65% 29.99 0.0
05 21:35 S 5 10.00 Fair CLR 72.5 59.4 63% 29.98 0.0
05 21:15 S 6 10.00 Fair CLR 73.9 59.2 60% 29.98 0.0
05 20:55 SW 5 10.00 Fair CLR 74.8 58.8 58% 29.97 0.0
05 20:35 SW 6 9.00 Fair CLR 75.9 57.9 54% 78 29.97 0.0
05 20:15 S 7 9.00 Fair CLR 77.2 56.8 50% 79 29.95 0.0
05 19:55 S 8 9.00 Fair CLR 78.8 55.6 45% 79 29.96 0.0
05 19:35 SW 7 10.00 Fair CLR 80.8 54 40% 80 29.95 0.0
05 19:15 SW 7 10.00 Fair CLR 81.7 53.2 37% 81 29.95 0.0
05 18:55 S 8 10.00 Fair CLR 81.9 53.2 37% 81 29.94 0.0
05 18:35 S 8 9.00 Fair CLR 82.6 52.5 35% 81 29.95 0.0
05 18:15 SW 7 10.00 Fair CLR 82.9 52.7 35% 82 29.95 0.0
05 17:55 S 7 10.00 Fair CLR 82.9 52.5 35% 82 29.95 0.0
05 17:35 SW 8 9.00 Fair CLR 83.7 52.3 34% 82 29.95 0.0
05 17:15 SW 10 9.00 Fair CLR 83.7 51.8 33% 82 29.95 0.0
05 16:55 SW 9 10.00 Fair CLR 83.3 52 34% 82 29.96 0.0
05 16:35 SW 9 10.00 Fair CLR 83.3 52 34% 82 29.96 0.0
05 16:15 S 7 10.00 Fair CLR 82.6 51.6 34% 81 29.97 0.0
05 15:55 SW 8 10.00 Fair CLR 81.9 52 36% 81 29.98 0.0
05 15:45 SW 8 G 16 9.00 Fair CLR 73.4 48.2 41% 29.92 0.0
05 15:35 SW 9 10.00 A Few Clouds FEW065 81.9 52.3 36% 81 29.99 0.0
05 15:20 W 12 9.00 Fair CLR 75.2 48.2 39% 77 29.93 0.0
05 15:15 S 6 10.00 A Few Clouds FEW060 81.5 52.7 37% 81 30 0.0
05 14:55 S 6 10.00 Partly Cloudy FEW060 SCT350 81.3 52.3 37% 81 30 0.0
05 14:35 Vrbl 3 10.00 A Few Clouds FEW350 80.8 52.7 38% 80 30.01 0.0
05 14:15 SW 10 10.00 A Few Clouds FEW360 80.8 52.5 38% 80 30.01 0.0
05 13:55 SW 10 10.00 Partly Cloudy FEW060 SCT360 81.3 53.4 38% 81 30.01 0.0
05 13:35 SW 9 10.00 A Few Clouds FEW310 79.9 51.8 38% 80 30.02 0.0
05 13:15 S 9 10.00 A Few Clouds FEW060 79.7 51.4 37% 80 30.03 0.0
05 12:55 S 9 10.00 Partly Cloudy FEW055 SCT330 SCT350 78.6 52.7 41% 79 30.03 0.0
05 12:35 S 16 9.00 A Few Clouds FEW050 77.5 53.2 43% 79 30.03 0.0
05 12:15 SW 9 10.00 Partly Cloudy SCT047 78.1 53.8 43% 79 30.04 0.0
05 11:55 SW 8 10.00 A Few Clouds FEW043 76.5 57.9 53% 78 30.05 0.0
05 11:35 S 8 10.00 Fair CLR 75.6 59.2 57% 78 30.05 0.0
05 11:15 SW 7 10.00 Fair CLR 74.1 59.5 61% 30.05 0.0
05 10:55 S 9 10.00 Fair CLR 73.2 59.5 62% 30.05 0.0
05 10:35 S 9 10.00 Fair CLR 71.4 59.2 65% 30.05 0.0
05 10:15 Vrbl 7 10.00 Fair CLR 70.7 60.4 70% 30.04 0.0
05 09:55 SW 9 10.00 Fair CLR 69.8 60.3 72% 30.04 0.0
05 09:35 S 6 9.00 Fair CLR 68.7 60.1 74% 30.04 0.0
05 09:15 S 6 10.00 Fair CLR 66.6 59.2 77% 30.03 0.0
05 08:55 Vrbl 3 10.00 Fair CLR 64.4 58.1 80% 30.03 0.0
05 08:35 SE 3 10.00 Fair CLR 62.2 57.9 86% 30.02 0.0
05 08:15 Calm 10.00 Fair CLR 60.6 57.9 91% 30.02 0.0
05 07:55 Calm 10.00 Fair CLR 57.9 57.6 99% 30.02 0.0
05 07:35 Calm 9.00 Partly Cloudy SCT060 55.8 55.8 100% 30.01 0.0
05 07:15 Calm 9.00 Mostly Cloudy BKN060 53.8 53.8 100% 30.01 0.0
05 06:55 Calm 9.00 A Few Clouds FEW060 54.5 54.5 100% 30 0.0
05 06:35 Calm 9.00 Fair CLR 54.3 54.3 100% 30 0.0
05 06:15 Calm 10.00 Fair CLR 53.6 53.6 100% 30 0.0
05 05:55 NE 3 10.00 Fair CLR 54.1 54.1 100% 29.99 0.0
05 05:35 Calm 10.00 Fair CLR 54.1 54.1 100% 30 0.0
05 05:15 Calm 10.00 Fair CLR 54 53.8 99% 29.99 0.0
05 04:55 Calm 10.00 Fair CLR 54 53.8 99% 30 0.0
05 04:35 Vrbl 3 10.00 Fair CLR 55 53.8 96% 29.98 0.0
05 04:15 Calm 10.00 Fair CLR 56.3 54.7 94% 29.99 0.0
05 03:55 SE 3 10.00 Fair CLR 54.3 53.6 97% 29.98 0.0
05 03:35 Calm 10.00 Fair CLR 55.6 54.1 95% 29.98 0.0
05 03:15 Calm 10.00 Fair CLR 55.9 54 93% 29.98 0.0
05 02:55 Calm 10.00 Fair CLR 57.7 54.7 90% 29.98 0.0
05 02:35 Calm 10.00 Fair CLR 57.9 53.8 86% 29.99 0.0
05 02:15 Calm 10.00 Fair CLR 59 54.1 84% 30 0.0
05 01:55 Calm 10.00 Fair CLR 60.6 53.6 78% 30 0.0
05 01:35 E 3 10.00 Fair CLR 60.6 53.4 77% 30.01 0.0
05 01:15 E 6 10.00 Fair CLR 62.1 52.9 72% 30.01 0.0
05 00:55 NE 6 10.00 Fair CLR 61.3 54 77% 30 0.0
05 00:35 E 8 10.00 Fair CLR 57.7 52.9 84% 30.01 0.0
05 00:15 NW 3 10.00 Fair CLR 60.4 55 82% 30.01 0.0
04 23:55 Calm 10.00 Fair CLR 60.8 55 81% 30.02 0.0
04 23:35 Calm 10.00 Fair CLR 62.4 54 74% 30.02 0.0
04 23:15 Calm 10.00 Fair CLR 61.7 54.9 78% 30.02 0.0
04 22:55 SW 6 10.00 Fair CLR 61.3 56.1 83% 30.02 0.0
04 22:35 Calm 10.00 Fair CLR 60.8 56.3 85% 30.01 0.0
04 22:15 Calm 10.00 Fair CLR 63 56.7 80% 30 0.0
04 21:55 Calm 9.00 Fair CLR 64.2 55.6 74% 30 0.0
04 21:35 Calm 10.00 Fair CLR 66.2 53.4 64% 29.99 0.0
04 21:15 Calm 10.00 Fair CLR 67.1 54.9 65% 29.99 0.0
04 20:55 Calm 10.00 Fair CLR 69.1 54.1 59% 29.98 0.0
04 20:35 Calm 9.00 Fair CLR 70.5 53.2 54% 29.98 0.0
04 20:15 Calm 9.00 Fair CLR 73 50.5 45% 29.98 0.0
04 19:55 Calm 8.00 Fair CLR 76.8 44.8 32% 78 29.97 0.0
04 19:35 Calm 9.00 Fair CLR 77.5 44.6 31% 78 29.97 0.0
04 19:15 S 6 10.00 Fair CLR 78.4 44.1 30% 78 29.97 0.0
04 18:55 SE 3 10.00 Fair CLR 78.4 43.9 29% 78 29.97 0.0
04 18:35 SW 3 10.00 Fair CLR 78.8 43.2 28% 78 29.97 0.0
04 18:15 E 6 10.00 Fair CLR 79.2 43.9 29% 79 29.97 0.0
04 17:55 Vrbl 3 10.00 Fair CLR 79.2 42.8 28% 79 29.97 0.0
04 17:40 W 12 G 17 9.00 Fair CLR 75.2 46.4 36% 77 29.92 0.0
04 17:35 E 8 10.00 Fair CLR 79.3 43.2 28% 79 29.97 0.0
04 17:15 E 7 10.00 Fair CLR 79.2 43 28% 79 29.97 0.0
04 16:55 Vrbl 6 10.00 Fair CLR 78.4 42.3 28% 78 29.98 0.0
04 16:35 Vrbl 7 10.00 Fair CLR 79.7 43.7 28% 79 29.99 0.0
04 16:15 NE 7 10.00 Fair CLR 78.8 42.6 28% 78 29.99 0.0
04 15:55 SE 8 10.00 Fair CLR 78.6 42.6 28% 78 30.01 0.0
04 15:35 SE 8 10.00 Fair CLR 77.7 41.7 28% 78 30.02 0.0
04 15:15 SE 8 10.00 Fair CLR 77.5 40.6 27% 78 30.02 0.0
04 14:55 Vrbl 3 10.00 Fair CLR 77 39.7 26% 77 30.03 0.0
04 14:35 Vrbl 3 10.00 Fair CLR 76.6 39.6 26% 77 30.04 0.0
04 14:15 NW 5 10.00 Fair CLR 76.1 38.7 26% 77 30.05 0.0
04 13:55 Vrbl 3 10.00 Fair CLR 75 39 27% 77 30.05 0.0
04 13:35 W 3 10.00 A Few Clouds FEW310 75.2 38.5 27% 77 30.06 0.0
04 13:15 Vrbl 3 10.00 Fair CLR 73.8 38.7 28% 30.06 0.0
04 12:55 S 6 10.00 Fair CLR 73.9 39.6 29% 30.06 0.0
04 12:35 S 6 10.00 Fair CLR 74.1 39.9 29% 30.07 0.0
04 12:15 Calm 10.00 Fair CLR 73 38.3 28% 30.08 0.0
04 11:55 E 6 10.00 Fair CLR 72.9 38.3 29% 30.08 0.0
04 11:35 NE 6 10.00 Fair CLR 72.1 38.5 29% 30.08 0.0
04 11:15 Calm 10.00 Fair CLR 72.1 38.8 30% 30.09 0.0
04 10:55 N 5 10.00 Fair CLR 71.1 39.6 32% 30.09 0.0
04 10:35 NE 7 10.00 Fair CLR 70.9 39.7 32% 30.09 0.0
04 10:15 Vrbl 6 10.00 Fair CLR 70 40.8 35% 30.1 0.0
04 09:55 Calm 10.00 Fair CLR 68 43.7 42% 30.1 0.0
04 09:35 Calm 10.00 Fair CLR 65.5 45.1 48% 30.1 0.0
04 09:15 Calm 10.00 Fair CLR 62.8 47.7 58% 30.09 0.0
04 08:55 SE 3 10.00 Fair CLR 59.9 53.2 79% 30.09 0.0
04 08:35 Calm 10.00 Fair CLR 57.2 53.6 88% 30.09 0.0
04 08:15 Calm 10.00 Fair CLR 54.3 52 92% 30.09 0.0
04 07:55 Calm 10.00 Fair CLR 51.8 50.4 95% 30.09 0.0
04 07:35 Calm 10.00 Fair CLR 50.5 50.2 99% 30.09 0.0
04 07:15 Calm 10.00 Fair CLR 48.4 48.4 100% 30.08 0.0
04 06:55 Calm 10.00 Fair CLR 47.3 47.3 100% 30.07 0.0
04 06:35 Calm 10.00 Fair CLR 48.6 48.6 100% 30.08 0.0
04 06:15 Calm 10.00 Fair CLR 48.6 48.6 100% 30.07 0.0
04 05:55 Calm 10.00 Fair CLR 48.7 48.7 100% 30.07 0.0
04 05:35 Calm 10.00 Fair CLR 49.6 49.5 99% 30.07 0.0
Date Time (edt) Wind (mph) Vis. (mi.) Weather Sky Cond. Air Dwpt Max. Min. Relative Humidity Wind Chill (°F) Heat Index (°F) altimeter (in) sea level (mb) 1 hr 3 hr 6 hr
6 hour
Temperature (ºF) Pressure Precipitation (in)